Sanford, Michigan
Current Conditions -  °F | °C
As of 9:15 PM on Friday 28 Nov 2014 (Local Time) from KIKW Reporting Station
Light Snow Light Snow  
Wind Chill: -8°   Ceiling: 2600
Heat Index: -3°   Visibility: 7mi
Dew Point: -5°   Wind: 8mph
Humidity: 88%   Direction: 140°SE
Pressure: 30.08"   Gusts: NA
Location:  43.67°N, 84.38°W
Report Text: KIKW 290215Z AUTO 14007KT 7SM -SN SCT009 BKN026 OVC047 M03/M05 A3008 RMK AO2 T10351053
Loading
Personal Weather Stations






























Interactive Weather Map New forecast layout! Learn more

10-Day Weather Forecast

Advertisements
Track Severe Weather on mobile